Time;durP1;ratioP1;P1;durP2;ratioP2;P2;SDS_P1;SDS_P2;PMS_P1;PMS_P2;Temp;Humidity;BMP_temperature;BMP_pressure;BME280_temperature;BME280_humidity;BME280_pressure;Samples;Min_cycle;Max_cycle;Signal;HPM_P1;HPM_P2
2022/09/26 00:00:07;;;;;;;6.65;5.50;;;;;;;16.41;94.76;99933.72;5054060;28;20207;-70
2022/09/26 00:02:34;;;;;;;4.43;4.03;;;;;;;16.27;92.78;99933.88;5057476;28;20199;-70
2022/09/26 00:05:01;;;;;;;6.75;4.20;;;;;;;16.18;91.20;99926.13;5056611;28;20198;-70
2022/09/26 00:07:27;;;;;;;7.18;4.45;;;;;;;16.10;92.89;99924.47;5059139;28;20203;-70
2022/09/26 00:09:54;;;;;;;7.82;4.43;;;;;;;16.04;93.76;99919.31;5057600;28;20231;-70
2022/09/26 00:12:22;;;;;;;5.63;4.07;;;;;;;16.06;95.29;99921.03;5055207;28;20191;-70
2022/09/26 00:14:49;;;;;;;7.20;4.25;;;;;;;16.02;96.75;99921.06;5055457;28;20203;-70
2022/09/26 00:17:16;;;;;;;5.63;4.13;;;;;;;15.50;97.73;99829.19;5055627;28;20203;-70
2022/09/26 00:19:43;;;;;;;6.10;4.63;;;;;;;15.96;98.08;99910.66;5056368;28;20368;-70
2022/09/26 00:22:09;;;;;;;4.82;3.83;;;;;;;15.96;98.13;99911.53;5034894;28;20250;-70
2022/09/26 00:24:36;;;;;;;5.05;4.00;;;;;;;15.99;98.25;99900.16;5055013;28;20202;-70
2022/09/26 00:27:03;;;;;;;6.07;4.75;;;;;;;16.02;95.69;99905.38;5056019;28;20262;-70
2022/09/26 00:29:31;;;;;;;5.72;3.95;;;;;;;16.07;95.28;99907.06;5056083;28;20187;-70
2022/09/26 00:31:58;;;;;;;5.70;4.18;;;;;;;16.07;93.55;99912.31;5057428;28;20203;-70
2022/09/26 00:34:25;;;;;;;8.13;4.35;;;;;;;16.03;94.04;99894.03;5020142;28;20226;-71
2022/09/26 00:36:51;;;;;;;5.43;4.93;;;;;;;16.16;96.58;99906.97;5029021;28;20207;-70
2022/09/26 00:39:18;;;;;;;4.72;4.13;;;;;;;16.20;96.98;99908.66;5056894;28;20199;-70
2022/09/26 00:41:45;;;;;;;5.07;4.65;;;;;;;16.04;98.83;99880.94;5056004;28;20225;-70
2022/09/26 00:44:44;;;;;;;10.80;5.13;;;;;;;16.24;99.96;99899.91;5055157;28;20213;-70
2022/09/26 00:47:23;;;;;;;10.23;5.18;;;;;;;16.15;100.00;99899.16;5057030;28;20285;-70
2022/09/26 00:49:53;;;;;;;7.60;4.40;;;;;;;16.08;100.00;99895.72;5057382;28;20199;-70
2022/09/26 00:52:23;;;;;;;8.75;4.28;;;;;;;16.09;99.73;99892.22;5051692;28;20191;-70
2022/09/26 00:54:54;;;;;;;7.30;4.70;;;;;;;16.04;100.00;99896.66;5053735;28;20218;-70
2022/09/26 00:57:24;;;;;;;5.60;4.03;;;;;;;15.98;100.00;99896.69;5007633;28;20266;-70
2022/09/26 00:59:57;;;;;;;7.43;3.63;;;;;;;15.85;100.00;99892.47;5052771;28;20203;-70
2022/09/26 01:02:24;;;;;;;8.82;3.85;;;;;;;15.83;98.61;99895.13;5054903;28;20250;-70
2022/09/26 01:04:52;;;;;;;5.50;3.95;;;;;;;15.76;97.51;99875.13;5049605;28;20265;-70
2022/09/26 01:07:22;;;;;;;3.60;3.40;;;;;;;15.91;94.93;99892.41;5051093;28;20195;-70
2022/09/26 01:09:49;;;;;;;3.47;3.25;;;;;;;15.89;93.36;99896.78;5051222;28;20235;-70
2022/09/26 01:12:17;;;;;;;3.53;3.25;;;;;;;15.83;91.61;99891.63;5055252;28;20260;-70
2022/09/26 01:14:46;;;;;;;4.13;3.70;;;;;;;15.55;89.54;99811.75;5053263;28;20735;-70
2022/09/26 01:17:15;;;;;;;3.88;3.25;;;;;;;16.03;87.33;99884.44;5052450;28;20675;-70
2022/09/26 01:19:55;;;;;;;4.22;3.60;;;;;;;15.98;87.93;99877.53;5051490;28;20694;-70
2022/09/26 01:22:43;;;;;;;4.47;3.20;;;;;;;16.01;87.96;99874.88;5021411;28;20207;-70
2022/09/26 01:25:22;;;;;;;4.00;3.58;;;;;;;15.90;89.15;99872.38;5020542;28;20199;-70
2022/09/26 01:28:18;;;;;;;8.30;3.85;;;;;;;15.90;89.13;99872.38;5055531;28;20206;-70
2022/09/26 01:30:53;;;;;;;7.05;3.33;;;;;;;15.88;89.01;99875.00;5055651;28;20252;-70
2022/09/26 01:33:42;;;;;;;5.40;3.50;;;;;;;15.83;89.29;99875.94;5053486;28;20226;-70
2022/09/26 01:36:28;;;;;;;7.22;3.60;;;;;;;15.70;89.46;99859.47;5049763;28;20203;-71
2022/09/26 01:39:08;;;;;;;5.97;3.83;;;;;;;15.75;89.15;99872.53;5054601;28;20182;-70
2022/09/26 01:41:50;;;;;;;3.70;3.40;;;;;;;15.70;89.12;99884.75;5052116;28;21024;-70
2022/09/26 01:44:30;;;;;;;3.75;3.45;;;;;;;15.69;89.67;99877.81;5055536;28;20211;-70
2022/09/26 01:47:03;;;;;;;3.80;3.50;;;;;;;15.66;89.56;99885.69;5053559;28;20211;-70
2022/09/26 01:49:36;;;;;;;4.43;4.03;;;;;;;15.64;89.86;99884.81;5055965;28;20199;-70
2022/09/26 01:52:08;;;;;;;4.30;3.90;;;;;;;15.59;91.22;99887.47;5050263;28;20240;-70
2022/09/26 01:54:39;;;;;;;4.88;4.43;;;;;;;15.63;99.03;99877.84;5052284;28;20310;-70
2022/09/26 01:57:13;;;;;;;6.80;4.72;;;;;;;15.63;100.00;99883.94;5051121;28;20261;-70
2022/09/26 01:59:46;;;;;;;8.88;6.45;;;;;;;15.56;100.00;99884.00;5056602;28;20212;-70
2022/09/26 02:02:20;;;;;;;5.82;4.70;;;;;;;15.50;100.00;99886.69;5040910;28;20191;-70
2022/09/26 02:04:53;;;;;;;6.50;5.80;;;;;;;15.42;100.00;99888.44;5051027;28;20199;-70
2022/09/26 02:07:24;;;;;;;7.47;5.35;;;;;;;15.30;100.00;99885.03;4978802;28;20191;-70
2022/09/26 02:09:58;;;;;;;6.07;5.50;;;;;;;15.25;100.00;99879.00;5053706;28;20918;-70
2022/09/26 02:12:30;;;;;;;7.03;5.68;;;;;;;15.18;100.00;99879.06;5053977;28;20288;-70
2022/09/26 02:15:00;;;;;;;6.88;5.32;;;;;;;15.09;100.00;99873.91;5053202;28;20234;-70
2022/09/26 02:17:35;;;;;;;7.45;5.47;;;;;;;15.18;100.00;99869.47;5059147;28;20202;-70
2022/09/26 02:20:10;;;;;;;7.22;6.20;;;;;;;15.11;100.00;99866.91;5059033;28;20646;-70
2022/09/26 02:22:38;;;;;;;7.30;6.00;;;;;;;14.86;100.00;99851.41;5067861;28;20281;-70
2022/09/26 02:25:06;;;;;;;9.05;6.45;;;;;;;15.00;100.00;99874.81;5038669;28;20203;-70
2022/09/26 02:27:32;;;;;;;11.02;5.95;;;;;;;14.94;100.00;99879.22;5025683;28;20197;-70
2022/09/26 02:29:59;;;;;;;7.07;5.47;;;;;;;14.90;100.00;99862.69;5034116;28;20261;-70
2022/09/26 02:32:30;;;;;;;6.90;5.55;;;;;;;14.95;100.00;99863.53;5055438;28;20199;-70
2022/09/26 02:34:57;;;;;;;5.00;4.50;;;;;;;14.74;100.00;99837.53;5037373;28;21901;-70
2022/09/26 02:37:27;;;;;;;9.52;4.93;;;;;;;14.88;100.00;99864.44;5058579;28;20658;-69
2022/09/26 02:39:55;;;;;;;4.63;4.18;;;;;;;14.86;100.00;99855.75;5063089;28;20203;-70
2022/09/26 02:42:29;;;;;;;4.75;4.20;;;;;;;14.92;100.00;99866.16;5056846;28;20956;-70
2022/09/26 02:45:11;;;;;;;6.03;4.30;;;;;;;14.92;100.00;99857.44;5045611;28;20199;-70
2022/09/26 02:48:04;;;;;;;4.10;3.70;;;;;;;14.95;100.00;99857.47;5059178;28;20191;-70
2022/09/26 02:50:48;;;;;;;5.40;3.55;;;;;;;15.06;100.00;99863.44;5058571;28;20871;-70
2022/09/26 02:53:27;;;;;;;6.22;3.50;;;;;;;15.10;98.86;99860.81;5055981;28;20194;-70
2022/09/26 02:56:03;;;;;;;5.85;3.97;;;;;;;15.08;99.18;99861.72;5056709;28;20199;-70
2022/09/26 02:58:42;;;;;;;3.75;3.45;;;;;;;15.02;99.89;99852.16;5056328;28;20218;-70
2022/09/26 03:01:16;;;;;;;6.20;4.18;;;;;;;15.02;100.00;99852.16;5058118;28;20300;-70
2022/09/26 03:03:50;;;;;;;4.65;3.88;;;;;;;15.03;100.00;99848.69;5056848;28;20209;-71
2022/09/26 03:06:22;;;;;;;4.90;3.65;;;;;;;15.28;100.00;99847.63;5058258;28;20383;-69
2022/09/26 03:08:51;;;;;;;5.22;3.55;;;;;;;15.11;99.49;99826.00;5055413;28;20234;-69
2022/09/26 03:11:22;;;;;;;7.95;4.40;;;;;;;15.18;100.00;99851.19;5021106;28;20613;-70
2022/09/26 03:13:52;;;;;;;4.68;4.28;;;;;;;15.19;100.00;99855.53;5060278;28;20220;-70
2022/09/26 03:16:20;;;;;;;5.13;4.57;;;;;;;15.08;100.00;99852.16;5027360;28;20192;-69
2022/09/26 03:18:53;;;;;;;5.82;4.30;;;;;;;14.95;100.00;99826.97;5056475;28;20592;-70
2022/09/26 03:21:21;;;;;;;5.95;4.25;;;;;;;15.02;100.00;99852.16;5056158;28;20739;-71
2022/09/26 03:23:49;;;;;;;7.75;4.95;;;;;;;14.96;100.00;99841.75;5056179;28;20515;-70
2022/09/26 03:26:19;;;;;;;6.47;4.22;;;;;;;15.00;100.00;99838.25;5057638;28;20199;-70
2022/09/26 03:28:46;;;;;;;6.03;4.25;;;;;;;14.86;100.00;99821.81;5055917;28;20214;-70
2022/09/26 03:31:12;;;;;;;7.18;4.43;;;;;;;14.85;100.00;99823.56;5054956;28;20282;-70
2022/09/26 03:33:39;;;;;;;7.22;4.80;;;;;;;15.16;100.00;99812.91;5059068;28;20342;-70
2022/09/26 03:36:09;;;;;;;6.45;4.75;;;;;;;15.13;100.00;99829.44;5053115;28;20195;-70
2022/09/26 03:38:36;;;;;;;7.47;4.45;;;;;;;15.05;100.00;99833.03;5055871;28;20290;-70
2022/09/26 03:41:03;;;;;;;4.50;3.75;;;;;;;15.07;100.00;99826.91;5053377;28;20249;-70
2022/09/26 03:43:30;;;;;;;7.20;4.05;;;;;;;14.99;100.00;99833.03;5044285;28;21127;-70
2022/09/26 03:45:57;;;;;;;7.60;3.78;;;;;;;14.91;99.17;99830.47;5055573;28;20211;-70
2022/09/26 03:48:24;;;;;;;8.48;4.22;;;;;;;15.00;100.00;99809.53;5056192;28;20199;-70
2022/09/26 03:50:51;;;;;;;7.28;3.83;;;;;;;14.97;100.00;99833.06;5057758;28;20663;-70
2022/09/26 03:53:19;;;;;;;5.45;3.78;;;;;;;14.99;100.00;99833.03;5055443;28;20199;-70
2022/09/26 03:55:46;;;;;;;5.63;3.88;;;;;;;14.89;99.68;99830.50;5011646;28;20211;-70
2022/09/26 03:58:12;;;;;;;5.97;4.00;;;;;;;14.89;98.96;99829.63;5056624;28;20728;-70
2022/09/26 04:00:39;;;;;;;8.05;3.90;;;;;;;14.89;99.94;99827.03;5057793;28;20835;-70
2022/09/26 04:03:06;;;;;;;5.10;4.20;;;;;;;14.69;98.95;99794.97;5054758;28;20206;-69
2022/09/26 04:05:33;;;;;;;13.38;4.65;;;;;;;14.82;94.86;99812.28;5054481;28;20211;-69
2022/09/26 04:08:01;;;;;;;8.65;4.70;;;;;;;14.90;96.10;99828.75;5057482;28;20375;-70
2022/09/26 04:10:30;;;;;;;8.02;4.72;;;;;;;14.88;96.90;99814.84;5057848;28;20285;-69
2022/09/26 04:12:56;;;;;;;7.88;4.55;;;;;;;14.90;97.18;99823.53;5044118;28;20199;-69
2022/09/26 04:15:23;;;;;;;7.00;4.68;;;;;;;14.94;98.32;99817.44;5055983;28;20333;-69
2022/09/26 04:17:50;;;;;;;9.13;4.50;;;;;;;14.94;95.64;99830.47;5063011;28;20619;-69
2022/09/26 04:20:17;;;;;;;8.65;5.00;;;;;;;15.02;95.10;99826.03;5071579;28;20195;-69
2022/09/26 04:22:44;;;;;;;16.67;4.93;;;;;;;15.05;95.72;99826.06;5036167;28;20198;-70
2022/09/26 04:25:11;;;;;;;10.82;5.40;;;;;;;15.12;94.49;99821.66;5068445;28;20688;-69
2022/09/26 04:27:39;;;;;;;8.73;5.45;;;;;;;15.26;95.84;99815.44;5057174;28;20302;-69
2022/09/26 04:30:08;;;;;;;13.35;5.28;;;;;;;15.33;95.39;99817.13;5071470;28;20584;-69
2022/09/26 04:32:34;;;;;;;13.65;5.10;;;;;;;15.39;92.38;99811.84;5071359;28;20205;-69
2022/09/26 04:35:01;;;;;;;11.07;4.60;;;;;;;15.51;89.25;99815.25;5067936;28;20272;-70
2022/09/26 04:37:28;;;;;;;7.82;4.85;;;;;;;15.63;90.92;99816.00;5051409;28;20264;-69
2022/09/26 04:39:55;;;;;;;7.38;4.20;;;;;;;15.72;90.66;99805.47;5054370;28;20191;-69
2022/09/26 04:42:24;;;;;;;10.63;4.53;;;;;;;15.98;88.22;99818.22;5071502;28;20295;-69
2022/09/26 04:44:52;;;;;;;7.95;4.47;;;;;;;16.25;88.84;99815.31;5069692;28;20280;-69
2022/09/26 04:47:19;;;;;;;8.48;4.70;;;;;;;16.44;86.97;99812.47;5071226;28;20190;-69
2022/09/26 04:49:45;;;;;;;11.00;5.53;;;;;;;16.46;83.92;99784.50;5035772;28;20650;-70
2022/09/26 04:52:14;;;;;;;7.35;4.85;;;;;;;16.88;83.80;99819.72;5071178;28;20658;-69
2022/09/26 04:54:40;;;;;;;7.95;4.43;;;;;;;17.09;78.02;99825.50;5034568;28;20215;-69
2022/09/26 04:57:07;;;;;;;20.90;5.65;;;;;;;17.22;80.64;99834.91;5071004;28;20199;-69
2022/09/26 04:59:34;;;;;;;32.78;6.80;;;;;;;17.38;84.82;99845.13;5042613;28;20860;-69
2022/09/26 05:02:07;;;;;;;19.25;7.30;;;;;;;17.32;99.27;99843.50;5051170;28;20652;-70
2022/09/26 05:04:34;;;;;;;23.52;8.40;;;;;;;16.84;100.00;99805.81;5063422;28;20634;-70
2022/09/26 05:07:01;;;;;;;12.15;8.88;;;;;;;16.81;100.00;99821.56;5051707;28;20640;-70
2022/09/26 05:09:28;;;;;;;15.73;8.93;;;;;;;16.79;100.00;99826.84;5050916;28;20238;-70
2022/09/26 05:11:55;;;;;;;17.38;10.55;;;;;;;16.78;100.00;99811.13;5032133;28;20199;-69
2022/09/26 05:14:22;;;;;;;16.90;8.05;;;;;;;16.86;100.00;99819.75;5030490;28;20256;-69
2022/09/26 05:16:49;;;;;;;16.17;10.02;;;;;;;16.82;100.00;99820.69;5050742;28;20245;-69
2022/09/26 05:19:17;;;;;;;18.15;9.07;;;;;;;16.98;100.00;99790.75;5015579;28;20269;-69
2022/09/26 05:21:43;;;;;;;17.17;10.13;;;;;;;17.16;100.00;99806.16;5052618;28;20200;-70
2022/09/26 05:26:55;;;;;;;19.95;9.75;;;;;;;17.22;100.00;99816.56;5034406;28;20207;-70
2022/09/26 05:29:22;;;;;;;20.88;9.27;;;;;;;17.30;100.00;99814.69;5044713;28;20235;-70
2022/09/26 05:31:49;;;;;;;16.00;9.43;;;;;;;17.27;100.00;99816.47;5036971;28;20203;-70
2022/09/26 05:34:17;;;;;;;19.15;9.80;;;;;;;17.48;100.00;99817.91;5050971;28;20772;-70
2022/09/26 05:36:43;;;;;;;18.67;10.50;;;;;;;17.72;100.00;99821.00;5014861;28;20203;-70
2022/09/26 05:41:52;;;;;;;23.60;10.45;;;;;;;18.40;100.00;99817.91;5048121;28;20203;-69
2022/09/26 05:44:20;;;;;;;17.30;10.57;;;;;;;18.63;100.00;99815.66;5052068;28;20204;-70
2022/09/26 05:46:47;;;;;;;30.63;10.63;;;;;;;18.64;100.00;99826.16;5062723;28;21398;-70
2022/09/26 05:49:14;;;;;;;25.25;9.52;;;;;;;18.76;100.00;99833.75;5070933;28;20606;-70
2022/09/26 05:51:42;;;;;;;15.40;9.82;;;;;;;18.97;100.00;99842.94;5072342;28;20205;-70
2022/09/26 05:54:09;;;;;;;21.33;9.90;;;;;;;18.89;98.93;99844.00;5074643;28;20199;-70
2022/09/26 05:56:36;;;;;;;17.67;10.80;;;;;;;19.17;94.73;99856.47;5074499;28;20199;-70
2022/09/26 05:59:03;;;;;;;20.60;10.65;;;;;;;19.47;90.33;99862.81;5074768;28;20207;-70
2022/09/26 06:01:32;;;;;;;16.65;9.30;;;;;;;19.71;85.43;99864.81;5074618;28;20207;-69
2022/09/26 06:03:58;;;;;;;14.20;8.25;;;;;;;19.94;81.06;99861.56;5074457;28;20209;-70
2022/09/26 06:06:26;;;;;;;16.05;8.88;;;;;;;20.22;78.10;99856.44;5074393;28;20674;-70
2022/09/26 06:08:54;;;;;;;15.55;8.65;;;;;;;20.35;75.13;99851.69;5074643;28;20238;-70
2022/09/26 06:11:26;;;;;;;19.85;8.20;;;;;;;20.22;72.24;99867.84;5074471;28;20249;-70
2022/09/26 06:13:54;;;;;;;20.10;8.02;;;;;;;20.20;72.05;99869.63;5074485;28;20806;-70
2022/09/26 06:16:21;;;;;;;13.63;7.95;;;;;;;20.03;73.46;99858.69;5074283;28;20292;-70
2022/09/26 06:18:51;;;;;;;15.85;8.05;;;;;;;19.63;74.61;99834.31;5074076;28;20336;-70
2022/09/26 06:21:19;;;;;;;13.48;7.95;;;;;;;19.57;76.10;99859.03;5074193;28;20217;-70
2022/09/26 06:23:47;;;;;;;15.88;9.00;;;;;;;19.44;77.16;99869.91;5073910;28;20892;-70
2022/09/26 06:26:18;;;;;;;11.77;8.52;;;;;;;19.29;78.27;99840.41;5038520;28;20205;-70
2022/09/26 06:28:46;;;;;;;11.88;8.07;;;;;;;19.51;76.58;99859.16;5074057;28;20206;-70
2022/09/26 06:31:15;;;;;;;11.30;7.28;;;;;;;19.63;69.33;99861.50;5073958;28;20198;-70
2022/09/26 06:33:42;;;;;;;9.38;6.57;;;;;;;19.78;67.32;99854.97;5073782;28;20210;-70
2022/09/26 06:36:10;;;;;;;9.85;6.25;;;;;;;19.90;63.86;99846.78;5073626;28;20235;-70
2022/09/26 06:38:38;;;;;;;13.65;6.47;;;;;;;20.03;64.77;99850.78;5073667;28;20202;-70
2022/09/26 06:41:06;;;;;;;18.80;8.13;;;;;;;20.15;65.43;99853.13;5073857;28;20206;-70
2022/09/26 06:43:34;;;;;;;15.23;8.18;;;;;;;19.70;70.38;99839.41;5073547;28;20298;-69
2022/09/26 06:46:01;;;;;;;20.67;9.35;;;;;;;19.56;73.77;99859.06;5073543;28;20210;-70
2022/09/26 06:48:28;;;;;;;12.82;8.15;;;;;;;19.63;80.89;99831.69;5073612;28;20210;-73
2022/09/26 06:50:58;;;;;;;13.95;9.55;;;;;;;20.09;75.04;99861.16;5038173;28;20202;-68
2022/09/26 06:53:25;;;;;;;14.25;8.63;;;;;;;20.35;70.62;99862.22;5073087;28;20210;-69
2022/09/26 06:55:52;;;;;;;23.10;9.88;;;;;;;20.19;70.18;99852.09;5072985;28;20246;-68
2022/09/26 06:58:19;;;;;;;34.17;10.10;;;;;;;20.53;69.73;99857.31;5072776;28;20198;-67
2022/09/26 07:00:47;;;;;;;37.03;9.43;;;;;;;20.60;69.51;99858.84;5037748;28;20206;-68
2022/09/26 07:03:14;;;;;;;20.50;9.50;;;;;;;20.72;69.23;99841.84;5073260;28;20199;-68
2022/09/26 07:05:42;;;;;;;39.35;11.05;;;;;;;20.78;69.60;99847.78;5073068;28;20213;-67
2022/09/26 07:08:09;;;;;;;37.47;9.77;;;;;;;20.54;69.33;99798.47;5073093;28;20195;-68
2022/09/26 07:10:36;;;;;;;29.45;8.77;;;;;;;21.00;69.03;99832.16;5072797;28;20211;-68
2022/09/26 07:13:05;;;;;;;14.60;9.50;;;;;;;21.13;67.00;99848.47;5072541;28;20643;-68
2022/09/26 07:15:33;;;;;;;24.35;9.35;;;;;;;21.17;66.39;99840.44;5072471;28;20579;-68
2022/09/26 07:18:02;;;;;;;24.30;9.30;;;;;;;21.44;65.84;99848.38;5072397;28;20206;-68
2022/09/26 07:20:32;;;;;;;20.83;9.40;;;;;;;21.38;66.87;99824.81;5072307;28;20286;-68
2022/09/26 07:23:01;;;;;;;37.08;9.40;;;;;;;21.48;67.06;99823.59;5072515;28;20207;-68
2022/09/26 07:25:28;;;;;;;16.30;7.70;;;;;;;21.64;64.58;99843.28;5072931;28;20191;-68
2022/09/26 07:27:55;;;;;;;16.08;7.47;;;;;;;21.60;63.51;99833.75;5072702;28;20293;-68
2022/09/26 07:30:22;;;;;;;13.15;6.75;;;;;;;21.56;62.77;99821.56;5072850;28;20206;-68
2022/09/26 07:32:49;;;;;;;13.48;7.15;;;;;;;22.03;61.33;99841.94;5072627;28;20663;-69
2022/09/26 07:35:17;;;;;;;24.48;7.85;;;;;;;22.34;58.47;99827.59;5072952;28;20226;-67
2022/09/26 07:37:45;;;;;;;13.15;5.72;;;;;;;22.86;56.69;99848.56;5072777;28;20207;-68
2022/09/26 07:40:11;;;;;;;14.95;5.70;;;;;;;22.90;55.60;99860.72;5072526;28;20210;-68
2022/09/26 07:42:38;;;;;;;9.65;5.70;;;;;;;22.93;55.07;99850.03;5072751;28;20229;-67
2022/09/26 07:45:06;;;;;;;22.13;5.65;;;;;;;23.26;53.56;99833.75;5072688;28;20202;-68
2022/09/26 07:50:19;;;;;;;13.15;5.07;;;;;;;23.42;51.75;99848.09;5072577;28;20900;-68
2022/09/26 07:52:47;;;;;;;7.07;5.15;;;;;;;23.70;52.08;99851.31;5072348;28;20875;-68
2022/09/26 07:55:16;;;;;;;21.38;6.15;;;;;;;23.98;50.98;99849.19;5072371;28;20226;-68
2022/09/26 07:57:43;;;;;;;11.30;6.07;;;;;;;24.25;49.60;99848.97;5072199;28;20612;-68
2022/09/26 08:00:13;;;;;;;11.10;6.03;;;;;;;24.54;49.56;99848.50;5072370;28;20203;-68
2022/09/26 08:02:41;;;;;;;12.15;6.03;;;;;;;24.59;49.10;99857.09;5053666;28;20195;-68
2022/09/26 08:05:10;;;;;;;13.10;6.03;;;;;;;24.09;49.43;99790.44;5072238;28;20194;-68
2022/09/26 08:07:38;;;;;;;17.63;5.93;;;;;;;24.37;50.52;99856.34;5072155;28;20206;-68
2022/09/26 08:10:07;;;;;;;12.60;5.63;;;;;;;24.31;50.70;99830.13;5071860;28;20246;-68
2022/09/26 08:12:38;;;;;;;20.27;5.80;;;;;;;24.74;51.54;99842.28;5071959;28;20199;-68
2022/09/26 08:15:06;;;;;;;10.35;5.13;;;;;;;24.82;50.75;99837.47;5071310;28;20686;-68
2022/09/26 08:17:33;;;;;;;9.07;5.15;;;;;;;24.80;48.65;99834.88;5071919;28;20201;-67
2022/09/26 08:20:00;;;;;;;10.40;4.70;;;;;;;24.98;49.12;99794.25;5071787;28;20191;-67
2022/09/26 08:22:27;;;;;;;6.85;4.95;;;;;;;25.46;48.91;99814.00;5053187;28;20210;-67
2022/09/26 08:24:55;;;;;;;8.40;4.70;;;;;;;25.68;47.10;99814.69;5071579;28;20659;-67
2022/09/26 08:27:22;;;;;;;14.80;5.60;;;;;;;25.75;47.98;99821.41;5071782;28;20219;-67
2022/09/26 08:29:49;;;;;;;8.55;5.57;;;;;;;26.02;46.32;99819.09;5071416;28;20691;-67
2022/09/26 08:32:17;;;;;;;9.70;5.10;;;;;;;25.91;45.74;99824.09;5071647;28;20206;-68
2022/09/26 08:34:44;;;;;;;14.30;6.07;;;;;;;25.82;46.63;99796.25;5071407;28;20198;-68
2022/09/26 08:37:11;;;;;;;10.77;5.68;;;;;;;25.42;46.66;99775.28;5071399;28;20238;-68
2022/09/26 08:39:38;;;;;;;11.88;5.65;;;;;;;25.83;46.67;99797.94;5071396;28;20636;-68
2022/09/26 08:42:32;;;;;;;16.25;5.70;;;;;;;25.80;46.40;99791.91;5071663;28;20218;-68
2022/09/26 08:48:34;;;;;;;15.35;5.60;;;;;;;25.92;47.57;99789.50;5012798;28;20212;-68
2022/09/26 08:51:12;;;;;;;8.30;4.88;;;;;;;26.00;47.54;99779.34;5025115;28;20731;-69
2022/09/26 08:53:46;;;;;;;7.88;5.10;;;;;;;25.64;47.63;99773.28;5014927;28;20344;-69
2022/09/26 08:56:19;;;;;;;12.43;5.53;;;;;;;25.54;47.49;99766.72;4979382;28;20224;-68
2022/09/26 08:58:51;;;;;;;9.93;5.10;;;;;;;25.67;47.20;99735.06;5028599;28;20210;-69
2022/09/26 09:01:25;;;;;;;6.47;4.30;;;;;;;24.97;48.20;99736.81;5019442;28;20213;-68
2022/09/26 09:03:55;;;;;;;6.90;4.47;;;;;;;24.81;48.32;99740.28;5025230;28;20208;-69
2022/09/26 09:06:23;;;;;;;9.65;4.20;;;;;;;24.94;46.87;99742.28;5028823;28;20208;-68
2022/09/26 09:08:54;;;;;;;12.00;4.43;;;;;;;25.04;46.57;99737.41;5028155;28;20236;-68
2022/09/26 09:11:37;;;;;;;4.68;4.03;;;;;;;24.96;45.83;99750.16;5028894;28;20226;-69
2022/09/26 09:14:19;;;;;;;4.93;3.97;;;;;;;24.85;45.63;99732.13;5028729;28;20614;-71
2022/09/26 09:17:04;;;;;;;8.20;4.03;;;;;;;25.16;46.35;99716.41;5028409;28;20231;-69
2022/09/26 09:19:38;;;;;;;6.90;4.00;;;;;;;25.34;44.87;99725.22;5014486;28;20605;-69
2022/09/26 09:22:21;;;;;;;12.75;4.25;;;;;;;25.83;45.13;99715.59;5028402;28;20204;-69
2022/09/26 09:24:58;;;;;;;8.80;4.30;;;;;;;26.12;44.62;99729.97;5010999;28;20211;-69
2022/09/26 09:27:38;;;;;;;5.70;4.30;;;;;;;26.59;43.21;99730.03;5044066;28;20199;-69
2022/09/26 09:30:17;;;;;;;4.32;3.92;;;;;;;26.77;43.40;99729.00;5038682;28;20211;-68
2022/09/26 09:32:49;;;;;;;8.43;4.20;;;;;;;26.99;43.25;99721.53;5050537;28;20203;-68
2022/09/26 09:35:20;;;;;;;8.18;3.80;;;;;;;27.37;41.57;99745.03;5050565;28;20209;-71
2022/09/26 09:37:51;;;;;;;5.13;3.53;;;;;;;27.66;41.32;99762.84;5050287;28;20207;-72
2022/09/26 09:40:27;;;;;;;6.78;4.22;;;;;;;28.01;41.29;99764.22;5050142;28;20207;-72
2022/09/26 09:43:01;;;;;;;7.07;3.85;;;;;;;27.97;41.01;99760.03;5050467;28;20198;-72
2022/09/26 09:45:37;;;;;;;8.80;3.92;;;;;;;27.67;41.66;99743.25;5050679;28;20599;-72
2022/09/26 09:48:06;;;;;;;4.32;3.97;;;;;;;27.01;42.56;99737.41;5050140;28;20202;-72
2022/09/26 09:50:42;;;;;;;8.23;4.47;;;;;;;27.21;43.04;99728.28;5050269;28;20293;-75
2022/09/26 09:53:21;;;;;;;9.35;4.10;;;;;;;27.45;41.72;99732.16;5036216;28;20200;-75
2022/09/26 09:56:01;;;;;;;9.18;4.25;;;;;;;27.31;42.11;99713.47;5049919;28;20288;-72
2022/09/26 09:58:47;;;;;;;7.15;4.20;;;;;;;27.55;42.62;99728.00;5050075;28;20207;-71
2022/09/26 10:01:24;;;;;;;5.68;3.90;;;;;;;27.25;42.90;99719.16;5027998;28;20196;-71
2022/09/26 10:04:02;;;;;;;9.43;4.07;;;;;;;27.13;43.22;99715.41;5027753;28;20200;-70
2022/09/26 10:06:31;;;;;;;6.25;4.13;;;;;;;26.75;43.13;99719.41;5027785;28;20208;-70
2022/09/26 10:09:01;;;;;;;7.53;3.83;;;;;;;26.82;43.29;99732.31;5027349;28;20232;-71
2022/09/26 10:11:31;;;;;;;11.07;3.67;;;;;;;26.79;42.97;99728.94;5008240;28;20680;-71
2022/09/26 10:14:02;;;;;;;3.88;3.10;;;;;;;26.49;42.06;99707.56;5007884;28;20200;-71
2022/09/26 10:16:32;;;;;;;6.60;3.45;;;;;;;25.93;43.65;99671.66;5007970;28;20733;-71
2022/09/26 10:19:05;;;;;;;4.90;3.60;;;;;;;25.94;43.47;99704.38;5001587;28;20204;-71
2022/09/26 10:21:38;;;;;;;6.78;3.17;;;;;;;26.00;44.03;99694.31;5027777;28;20200;-71
2022/09/26 10:24:07;;;;;;;7.72;3.17;;;;;;;26.10;42.91;99687.53;5027714;28;20608;-71
2022/09/26 10:26:36;;;;;;;6.72;2.90;;;;;;;26.14;42.05;99678.47;5027718;28;20231;-74
2022/09/26 10:29:06;;;;;;;4.28;3.08;;;;;;;26.40;42.25;99697.44;5030346;28;20212;-74
2022/09/26 10:31:37;;;;;;;3.30;3.00;;;;;;;26.49;41.98;99696.94;5050047;28;20239;-75
2022/09/26 10:34:06;;;;;;;8.32;3.03;;;;;;;26.38;41.68;99686.03;5049564;28;20210;-74
2022/09/26 10:36:35;;;;;;;4.88;3.63;;;;;;;26.41;41.44;99688.50;5049906;28;20231;-71
2022/09/26 10:42:00;;;;;;;4.13;3.35;;;;;;;26.56;42.43;99683.22;5053487;28;20202;-69
2022/09/26 10:44:31;;;;;;;4.53;3.30;;;;;;;26.67;43.30;99673.75;5053583;28;20670;-69
2022/09/26 10:47:07;;;;;;;4.65;3.00;;;;;;;26.32;42.49;99681.94;5053818;28;20264;-68
2022/09/26 10:49:39;;;;;;;3.90;3.10;;;;;;;26.05;41.13;99670.97;5034628;28;20904;-68
2022/09/26 10:52:13;;;;;;;3.92;2.88;;;;;;;26.28;41.34;99675.06;5053472;28;20613;-74
2022/09/26 10:54:47;;;;;;;9.15;3.15;;;;;;;26.39;42.47;99671.81;5053819;28;20280;-70
2022/09/26 10:57:21;;;;;;;11.02;4.03;;;;;;;26.53;42.03;99674.53;5053132;28;20292;-70
2022/09/26 10:59:49;;;;;;;6.30;3.28;;;;;;;26.47;41.51;99662.44;5053425;28;20205;-70
2022/09/26 11:02:22;;;;;;;3.97;3.30;;;;;;;26.48;41.68;99642.03;5053388;28;20299;-69
2022/09/26 11:07:43;;;;;;;8.35;3.28;;;;;;;26.41;40.59;99622.91;5053357;28;20677;-69
2022/09/26 11:10:13;;;;;;;5.47;3.15;;;;;;;26.83;41.05;99638.22;5053496;28;20754;-71
2022/09/26 11:12:56;;;;;;;5.05;2.90;;;;;;;26.84;39.89;99639.94;5053185;28;20668;-69
2022/09/26 11:15:23;;;;;;;3.95;2.95;;;;;;;26.55;40.64;99628.28;5053277;28;20207;-69
2022/09/26 11:17:54;;;;;;;7.03;2.70;;;;;;;27.03;40.05;99635.25;5052643;28;20235;-70
2022/09/26 11:20:35;;;;;;;8.18;3.28;;;;;;;27.09;40.08;99621.56;5053058;28;20200;-70
2022/09/26 11:23:13;;;;;;;11.48;3.42;;;;;;;27.33;39.36;99624.53;5052645;28;20257;-69
2022/09/26 11:25:53;;;;;;;6.10;3.00;;;;;;;27.20;38.77;99636.03;5034027;28;20202;-69
2022/09/26 11:28:26;;;;;;;3.10;2.75;;;;;;;27.19;38.40;99634.31;5052737;28;20203;-71
2022/09/26 11:30:58;;;;;;;5.65;3.25;;;;;;;27.25;38.62;99624.16;5053035;28;20268;-71
2022/09/26 11:33:27;;;;;;;3.00;2.75;;;;;;;27.25;38.26;99610.84;5052825;28;20200;-71
2022/09/26 11:36:09;;;;;;;4.53;2.95;;;;;;;27.56;38.10;99623.16;5052743;28;20196;-69
2022/09/26 11:38:46;;;;;;;11.27;3.58;;;;;;;27.47;37.61;99607.75;5052706;28;20302;-70
2022/09/26 11:41:46;;;;;;;5.90;2.70;;;;;;;27.37;37.95;99622.53;5052850;28;20231;-71
2022/09/26 11:44:34;;;;;;;3.47;3.17;;;;;;;27.40;37.87;99625.00;5030411;28;20726;-70
2022/09/26 11:47:19;;;;;;;3.60;2.80;;;;;;;27.73;38.18;99614.13;4966231;28;20203;-71
2022/09/26 11:50:07;;;;;;;3.15;2.67;;;;;;;28.19;37.65;99612.94;5029747;28;20212;-72
2022/09/26 11:52:48;;;;;;;4.70;3.55;;;;;;;28.66;36.76;99614.28;5029260;28;20196;-72
2022/09/26 11:55:27;;;;;;;11.80;3.17;;;;;;;28.77;37.15;99609.13;5025770;28;20719;-71
2022/09/26 11:58:01;;;;;;;2.83;2.60;;;;;;;28.68;37.73;99610.59;4980828;28;20223;-72
2022/09/26 12:00:40;;;;;;;7.25;3.25;;;;;;;28.74;36.81;99610.19;5029598;28;20200;-72
2022/09/26 12:03:34;;;;;;;8.18;3.45;;;;;;;28.54;36.81;99610.63;5029013;28;20318;-71